createdAt,value
2022-11-30T00:01:11.779Z,76.80
2022-11-30T00:03:40.324Z,76.03
2022-11-30T00:06:10.481Z,77.20
2022-11-30T00:08:38.904Z,78.90
2022-11-30T00:11:12.893Z,76.30
2022-11-30T00:13:41.908Z,77.03
2022-11-30T00:16:10.585Z,75.53
2022-11-30T00:18:39.035Z,77.83
2022-11-30T00:21:09.668Z,78.43
2022-11-30T00:23:39.992Z,77.07
2022-11-30T00:26:11.889Z,80.30
2022-11-30T00:28:40.751Z,77.50
2022-11-30T00:31:12.871Z,75.03
2022-11-30T00:33:41.676Z,76.53
2022-11-30T00:36:13.480Z,78.10
2022-11-30T00:38:41.744Z,73.60
2022-11-30T00:41:11.361Z,78.23
2022-11-30T00:43:39.615Z,80.07
2022-11-30T00:46:09.249Z,78.60
2022-11-30T00:48:37.594Z,79.07
2022-11-30T00:51:06.164Z,77.67
2022-11-30T00:53:34.373Z,81.17
2022-11-30T00:56:02.530Z,79.23
2022-11-30T00:58:31.972Z,79.27
2022-11-30T01:01:00.377Z,80.87
2022-11-30T01:03:28.603Z,76.83
2022-11-30T01:05:56.626Z,79.63
2022-11-30T01:08:25.668Z,78.10
2022-11-30T01:10:57.822Z,80.33
2022-11-30T01:13:25.917Z,82.23
2022-11-30T01:15:55.412Z,80.37
2022-11-30T01:18:23.435Z,80.97
2022-11-30T01:20:51.553Z,81.07
2022-11-30T01:23:19.908Z,79.93
2022-11-30T01:25:55.818Z,81.60
2022-11-30T01:28:23.961Z,80.67
2022-11-30T01:30:59.691Z,80.90
2022-11-30T01:33:27.901Z,80.33
2022-11-30T01:36:04.683Z,81.10
2022-11-30T01:38:34.644Z,80.83
2022-11-30T01:41:03.171Z,77.77
2022-11-30T01:43:43.210Z,79.20
2022-11-30T01:46:37.055Z,77.73
2022-11-30T01:49:14.604Z,81.90
2022-11-30T01:51:47.072Z,79.17
2022-11-30T01:54:17.978Z,78.07
2022-11-30T01:56:49.619Z,78.47
2022-11-30T01:59:20.713Z,81.40
2022-11-30T02:01:50.330Z,80.40
2022-11-30T02:04:22.865Z,80.27
2022-11-30T02:06:51.138Z,77.53
2022-11-30T02:09:21.179Z,79.77
2022-11-30T02:11:49.824Z,81.43
2022-11-30T02:14:29.962Z,81.27
2022-11-30T02:17:10.555Z,81.90
2022-11-30T02:20:05.458Z,82.83
2022-11-30T02:22:48.373Z,86.37
2022-11-30T02:25:22.910Z,84.70
2022-11-30T02:28:14.153Z,83.43
2022-11-30T02:30:48.003Z,85.07
2022-11-30T02:33:20.345Z,81.37
2022-11-30T02:35:55.176Z,80.33
2022-11-30T02:38:26.410Z,78.87
2022-11-30T02:40:54.508Z,80.47
2022-11-30T02:43:25.299Z,79.80
2022-11-30T02:46:02.972Z,81.43
2022-11-30T02:48:38.759Z,84.00
2022-11-30T02:51:09.232Z,80.33
2022-11-30T02:53:37.730Z,82.03
2022-11-30T02:56:06.324Z,81.50
2022-11-30T02:58:34.514Z,80.80
2022-11-30T03:01:04.021Z,80.37
2022-11-30T03:03:32.157Z,80.53
2022-11-30T03:06:00.247Z,82.73
2022-11-30T03:08:28.418Z,84.10
2022-11-30T03:10:56.495Z,82.87
2022-11-30T03:13:24.602Z,81.63
2022-11-30T03:15:52.696Z,82.40
2022-11-30T03:18:22.264Z,80.80
2022-11-30T03:20:50.966Z,82.00
2022-11-30T03:23:20.032Z,79.40
2022-11-30T03:25:48.168Z,80.93
2022-11-30T03:28:16.202Z,82.60
2022-11-30T03:30:50.001Z,81.50
2022-11-30T03:33:18.681Z,79.93
2022-11-30T03:35:48.603Z,78.10
2022-11-30T03:38:16.761Z,81.00
2022-11-30T03:40:44.855Z,79.73
2022-11-30T03:43:12.963Z,78.93
2022-11-30T03:45:41.071Z,80.97
2022-11-30T03:48:09.222Z,78.43
2022-11-30T03:50:37.392Z,78.83
2022-11-30T03:53:06.826Z,80.43
2022-11-30T03:55:35.563Z,80.03
2022-11-30T03:58:03.633Z,80.50
2022-11-30T04:00:31.667Z,80.33
2022-11-30T04:02:59.811Z,77.40
2022-11-30T04:05:27.918Z,80.10
2022-11-30T04:07:56.148Z,79.30
2022-11-30T04:10:25.780Z,81.23
2022-11-30T04:12:53.989Z,77.87
2022-11-30T04:15:22.126Z,78.27
2022-11-30T04:17:50.344Z,79.33
2022-11-30T04:20:18.567Z,77.53
2022-11-30T04:22:46.728Z,79.30
2022-11-30T04:25:14.801Z,76.93
2022-11-30T04:27:46.916Z,75.10
2022-11-30T04:30:15.951Z,77.43
2022-11-30T04:32:44.431Z,75.13
2022-11-30T04:35:12.694Z,76.03
2022-11-30T04:37:40.778Z,75.90
2022-11-30T04:40:09.990Z,80.50
2022-11-30T04:42:38.125Z,77.00
2022-11-30T04:45:08.832Z,77.87
2022-11-30T04:47:37.570Z,80.57
2022-11-30T04:50:07.678Z,81.13
2022-11-30T04:52:35.797Z,79.37
2022-11-30T04:55:04.791Z,76.73
2022-11-30T04:57:33.190Z,81.97
2022-11-30T05:00:01.403Z,79.87
2022-11-30T05:02:32.008Z,78.00
2022-11-30T05:05:00.106Z,74.73
2022-11-30T05:07:28.064Z,77.27
2022-11-30T05:09:56.082Z,76.60
2022-11-30T05:12:24.171Z,80.13
2022-11-30T05:14:52.302Z,79.03
2022-11-30T05:17:20.464Z,81.67
2022-11-30T05:19:49.968Z,75.03
2022-11-30T05:22:18.297Z,76.80
2022-11-30T05:24:46.683Z,77.87
2022-11-30T05:27:20.898Z,75.50
2022-11-30T05:29:50.637Z,76.83
2022-11-30T05:32:19.004Z,76.03
2022-11-30T05:34:51.089Z,80.70
2022-11-30T05:37:21.408Z,79.63
2022-11-30T05:39:49.552Z,78.80
2022-11-30T05:42:17.726Z,76.27
2022-11-30T05:44:46.254Z,74.13
2022-11-30T05:47:14.882Z,75.57
2022-11-30T05:49:43.095Z,76.57
2022-11-30T05:52:11.508Z,76.83
2022-11-30T05:54:40.959Z,75.17
2022-11-30T05:57:09.098Z,75.60
2022-11-30T05:59:37.176Z,78.00
2022-11-30T06:02:05.451Z,75.10
2022-11-30T06:04:34.614Z,75.03
2022-11-30T06:07:02.667Z,76.50
2022-11-30T06:09:30.829Z,75.47
2022-11-30T06:12:00.351Z,76.10
2022-11-30T06:14:28.427Z,69.83
2022-11-30T06:16:56.517Z,72.50
2022-11-30T06:19:25.265Z,70.00
2022-11-30T06:21:53.557Z,67.17
2022-11-30T06:24:21.627Z,71.60
2022-11-30T06:26:49.783Z,68.77
2022-11-30T06:29:19.349Z,68.43
2022-11-30T06:31:47.637Z,67.43
2022-11-30T06:34:15.761Z,67.10
2022-11-30T06:36:43.833Z,68.90
2022-11-30T06:39:13.341Z,71.80
2022-11-30T06:41:41.500Z,68.40
2022-11-30T06:44:10.396Z,69.20
2022-11-30T06:46:39.839Z,69.10
2022-11-30T06:49:08.114Z,69.37
2022-11-30T06:51:37.276Z,63.80
2022-11-30T06:54:05.777Z,64.50
2022-11-30T06:56:34.097Z,66.47
2022-11-30T06:59:02.277Z,67.00
2022-11-30T07:01:30.502Z,69.88
2022-11-30T07:04:00.079Z,65.57
2022-11-30T07:06:28.411Z,67.87
2022-11-30T07:08:56.580Z,70.20
2022-11-30T07:11:24.655Z,69.20
2022-11-30T07:13:52.880Z,79.47
2022-11-30T07:16:21.010Z,74.67
2022-11-30T07:18:49.208Z,71.33
2022-11-30T07:21:18.742Z,74.60
2022-11-30T07:24:04.396Z,78.30
2022-11-30T07:26:32.499Z,77.90
2022-11-30T07:29:00.554Z,75.97
2022-11-30T07:31:30.368Z,70.43
2022-11-30T07:34:00.191Z,71.53
2022-11-30T07:36:30.330Z,73.10
2022-11-30T07:38:58.586Z,74.27
2022-11-30T07:41:26.894Z,74.07
2022-11-30T07:43:54.994Z,72.83
2022-11-30T07:46:23.122Z,77.07
2022-11-30T07:48:51.320Z,77.40
2022-11-30T07:51:21.584Z,77.00
2022-11-30T07:53:51.495Z,75.97
2022-11-30T07:56:21.584Z,81.40
2022-11-30T07:58:50.441Z,74.67
2022-11-30T08:01:21.557Z,80.73
2022-11-30T08:03:50.235Z,77.43
2022-11-30T08:06:20.942Z,79.57
2022-11-30T08:08:51.914Z,79.00
2022-11-30T08:11:22.190Z,80.33
2022-11-30T08:13:50.616Z,75.13
2022-11-30T08:16:21.076Z,75.67
2022-11-30T08:18:49.777Z,76.33
2022-11-30T08:21:19.700Z,76.70
2022-11-30T08:23:51.179Z,80.73
2022-11-30T08:26:21.526Z,82.73
2022-11-30T08:28:51.095Z,82.20
2022-11-30T08:31:21.626Z,82.77
2022-11-30T08:33:50.955Z,76.77
2022-11-30T08:36:21.017Z,83.03
2022-11-30T08:38:50.926Z,86.37
2022-11-30T08:41:21.252Z,88.50
2022-11-30T08:43:51.515Z,85.17
2022-11-30T08:46:49.911Z,87.70
2022-11-30T08:49:21.595Z,90.53
2022-11-30T08:57:33.029Z,85.53
2022-11-30T09:00:01.219Z,86.17
2022-11-30T09:02:29.453Z,87.00
2022-11-30T09:04:57.657Z,89.47
2022-11-30T09:07:25.972Z,91.20
2022-11-30T09:09:55.786Z,92.97
2022-11-30T09:12:23.949Z,96.53
2022-11-30T09:14:57.620Z,91.90
2022-11-30T09:17:26.790Z,92.87
2022-11-30T09:19:56.064Z,91.93
2022-11-30T09:22:24.212Z,96.50
2022-11-30T09:24:52.487Z,93.53
2022-11-30T09:27:22.406Z,92.30
2022-11-30T09:29:50.571Z,93.17
2022-11-30T09:32:18.672Z,96.97
2022-11-30T09:34:47.984Z,99.77
2022-11-30T09:37:18.285Z,105.23
2022-11-30T09:39:46.380Z,105.10
2022-11-30T09:42:32.827Z,101.67
2022-11-30T09:45:04.594Z,104.60
2022-11-30T09:47:54.417Z,103.53
2022-11-30T09:50:24.879Z,106.63
2022-11-30T09:52:56.392Z,106.17
2022-11-30T09:55:28.550Z,99.57
2022-11-30T09:58:01.632Z,98.87
2022-11-30T10:00:29.972Z,101.13
2022-11-30T10:03:00.477Z,97.03
2022-11-30T10:05:39.740Z,100.00
2022-11-30T10:08:23.760Z,99.97
2022-11-30T10:11:03.765Z,97.70
2022-11-30T10:13:48.849Z,98.40
2022-11-30T10:16:25.499Z,98.23
2022-11-30T10:19:05.525Z,101.37
2022-11-30T10:21:51.318Z,97.27
2022-11-30T10:24:36.446Z,100.27
2022-11-30T10:27:13.345Z,98.17
2022-11-30T10:29:44.046Z,99.97
2022-11-30T10:32:18.198Z,99.33
2022-11-30T10:34:50.162Z,102.20
2022-11-30T10:37:20.974Z,95.70
2022-11-30T10:39:59.867Z,94.80
2022-11-30T10:42:32.436Z,92.97
2022-11-30T10:45:06.405Z,87.57
2022-11-30T10:47:37.703Z,84.27
2022-11-30T10:50:07.680Z,82.23
2022-11-30T10:52:42.755Z,86.20
2022-11-30T10:55:18.866Z,81.60
2022-11-30T10:57:49.548Z,80.70
2022-11-30T11:00:19.887Z,83.40
2022-11-30T11:02:49.483Z,79.13
2022-11-30T11:05:21.108Z,83.43
2022-11-30T11:07:59.845Z,84.47
2022-11-30T11:10:35.802Z,81.70
2022-11-30T11:13:05.108Z,78.57
2022-11-30T11:15:35.910Z,77.80
2022-11-30T11:18:26.107Z,75.27
2022-11-30T11:21:06.193Z,73.33
2022-11-30T11:23:38.011Z,68.23
2022-11-30T11:26:07.432Z,66.20
2022-11-30T11:28:39.445Z,63.77
2022-11-30T11:31:20.536Z,62.27
2022-11-30T11:33:53.815Z,64.67
2022-11-30T11:36:28.199Z,59.60
2022-11-30T11:38:56.975Z,58.27
2022-11-30T11:41:28.516Z,58.50
2022-11-30T11:44:05.782Z,58.53
2022-11-30T11:46:38.373Z,56.43
2022-11-30T11:49:09.095Z,54.50
2022-11-30T11:51:39.575Z,48.90
2022-11-30T11:54:17.664Z,45.77
2022-11-30T11:56:46.529Z,46.40
2022-11-30T11:59:18.969Z,43.60
2022-11-30T12:01:56.394Z,38.93
2022-11-30T12:04:50.720Z,35.90
2022-11-30T12:07:26.278Z,34.40
2022-11-30T12:10:50.460Z,33.73
2022-11-30T12:13:15.695Z,31.27
2022-11-30T12:15:59.462Z,31.30
2022-11-30T12:18:35.099Z,29.37
2022-11-30T12:21:13.191Z,30.27
2022-11-30T12:24:03.779Z,29.90
2022-11-30T12:26:39.261Z,29.60
2022-11-30T12:29:22.026Z,29.20
2022-11-30T12:32:03.711Z,28.60
2022-11-30T12:34:47.895Z,28.03
2022-11-30T12:37:23.455Z,27.60
2022-11-30T12:40:03.243Z,26.57
2022-11-30T12:42:39.872Z,28.70
2022-11-30T12:45:18.797Z,31.23
2022-11-30T12:47:55.437Z,30.43
2022-11-30T12:50:39.472Z,28.73
2022-11-30T12:53:18.866Z,27.03
2022-11-30T12:55:55.768Z,26.17
2022-11-30T12:58:41.577Z,25.07
2022-11-30T13:01:20.390Z,26.20
2022-11-30T13:03:56.899Z,25.57
2022-11-30T13:06:32.974Z,25.63
2022-11-30T13:09:06.680Z,24.67
2022-11-30T13:11:39.004Z,24.07
2022-11-30T13:14:14.706Z,21.93
2022-11-30T13:16:45.270Z,20.43
2022-11-30T13:19:30.442Z,19.73
2022-11-30T13:22:06.657Z,18.23
2022-11-30T13:24:38.657Z,18.47
2022-11-30T13:27:12.249Z,18.67
2022-11-30T13:29:58.477Z,19.37
2022-11-30T13:35:46.215Z,17.40
2022-11-30T13:38:36.321Z,18.57
2022-11-30T13:41:08.429Z,19.10
2022-11-30T13:43:41.384Z,19.33
2022-11-30T13:46:16.712Z,19.57
2022-11-30T13:48:46.075Z,18.93
2022-11-30T13:51:14.794Z,19.40
2022-11-30T13:53:44.314Z,20.40
2022-11-30T13:56:35.692Z,21.70
2022-11-30T13:59:36.300Z,20.80
2022-11-30T14:02:43.141Z,20.70
2022-11-30T14:05:26.026Z,20.63
2022-11-30T14:08:19.286Z,21.30
2022-11-30T14:10:49.945Z,20.83
2022-11-30T14:13:29.964Z,21.70
2022-11-30T14:16:01.268Z,23.07
2022-11-30T14:18:39.795Z,22.33
2022-11-30T14:21:32.474Z,22.30
2022-11-30T14:24:03.362Z,24.50
2022-11-30T14:26:37.485Z,25.27
2022-11-30T14:29:16.818Z,24.90
2022-11-30T14:31:53.812Z,23.90
2022-11-30T14:34:27.141Z,25.23
2022-11-30T14:37:00.535Z,24.07
2022-11-30T14:39:33.945Z,24.20
2022-11-30T14:42:04.821Z,23.43
2022-11-30T14:44:35.967Z,26.40
2022-11-30T14:47:14.657Z,26.57
2022-11-30T14:49:47.802Z,25.00
2022-11-30T14:52:20.839Z,24.73
2022-11-30T14:54:55.256Z,25.13
2022-11-30T14:57:33.234Z,24.17
2022-11-30T15:00:01.599Z,25.20
2022-11-30T15:02:34.288Z,23.53
2022-11-30T15:05:03.583Z,23.33
2022-11-30T15:07:32.808Z,25.50
2022-11-30T15:10:07.501Z,23.07
2022-11-30T15:12:41.966Z,25.33
2022-11-30T15:15:19.997Z,24.70
2022-11-30T15:17:55.847Z,25.60
2022-11-30T15:20:37.649Z,25.40
2022-11-30T15:23:06.638Z,27.57
2022-11-30T15:25:43.619Z,26.50
2022-11-30T15:28:18.689Z,27.23
2022-11-30T15:30:54.449Z,27.50
2022-11-30T15:33:25.599Z,30.57
2022-11-30T15:36:32.301Z,31.50
2022-11-30T15:38:53.139Z,32.60
2022-11-30T15:41:24.524Z,35.00
2022-11-30T15:43:56.758Z,34.73
2022-11-30T15:46:42.769Z,38.50
2022-11-30T15:49:24.666Z,40.30
2022-11-30T15:52:04.780Z,39.77
2022-11-30T15:54:47.279Z,40.63
2022-11-30T15:57:16.618Z,40.93
2022-11-30T16:00:02.061Z,40.80
2022-11-30T16:02:34.871Z,40.60
2022-11-30T16:05:24.505Z,43.67
2022-11-30T16:07:54.913Z,45.23
2022-11-30T16:10:26.200Z,46.07
2022-11-30T16:12:55.882Z,46.30
2022-11-30T16:15:27.720Z,47.00
2022-11-30T16:17:59.603Z,48.93
2022-11-30T16:20:29.111Z,49.93
2022-11-30T16:23:02.501Z,51.37
2022-11-30T16:25:33.748Z,51.27
2022-11-30T16:28:02.928Z,52.97
2022-11-30T16:30:32.608Z,55.17
2022-11-30T16:33:00.802Z,58.17
2022-11-30T16:35:36.565Z,58.17
2022-11-30T16:38:05.067Z,60.33
2022-11-30T16:40:38.509Z,61.53
2022-11-30T16:43:07.236Z,61.30
2022-11-30T16:45:39.014Z,61.17
2022-11-30T16:48:08.258Z,61.50
2022-11-30T16:50:37.406Z,64.10
2022-11-30T16:53:06.512Z,67.60
2022-11-30T16:55:37.766Z,66.13
2022-11-30T16:58:06.299Z,64.30
2022-11-30T17:00:35.327Z,64.67
2022-11-30T17:03:09.629Z,67.70
2022-11-30T17:05:38.222Z,67.23
2022-11-30T17:08:06.669Z,69.47
2022-11-30T17:10:34.972Z,68.20
2022-11-30T17:13:03.301Z,70.87
2022-11-30T17:15:31.610Z,69.13
2022-11-30T17:17:59.742Z,65.83
2022-11-30T17:20:29.564Z,66.93
2022-11-30T17:22:57.821Z,67.60
2022-11-30T17:25:26.185Z,66.83
2022-11-30T17:27:54.325Z,66.40
2022-11-30T17:30:23.876Z,66.40
2022-11-30T17:32:52.276Z,65.63
2022-11-30T17:35:20.733Z,64.37
2022-11-30T17:37:50.337Z,64.40
2022-11-30T17:40:18.789Z,66.53
2022-11-30T17:42:46.923Z,64.97
2022-11-30T17:45:15.137Z,65.60
2022-11-30T17:47:43.283Z,68.90
2022-11-30T17:50:12.051Z,67.30
2022-11-30T17:52:40.236Z,67.53
2022-11-30T17:55:10.586Z,69.60
2022-11-30T17:57:39.714Z,65.03
2022-11-30T18:00:09.767Z,67.33
2022-11-30T18:02:37.983Z,66.70
2022-11-30T18:05:07.279Z,67.23
2022-11-30T18:07:35.517Z,68.17
2022-11-30T18:10:03.770Z,67.67
2022-11-30T18:12:33.272Z,65.30
2022-11-30T18:15:01.426Z,64.90
2022-11-30T18:17:29.743Z,67.37
2022-11-30T18:19:57.851Z,67.67
2022-11-30T18:22:26.185Z,70.13
2022-11-30T18:24:54.325Z,68.13
2022-11-30T18:27:22.527Z,67.57
2022-11-30T18:29:52.313Z,69.97
2022-11-30T18:32:20.677Z,68.07
2022-11-30T18:34:50.349Z,68.03
2022-11-30T18:37:18.668Z,63.83
2022-11-30T18:39:47.533Z,64.97
2022-11-30T18:42:16.328Z,68.27
2022-11-30T18:44:44.569Z,70.37
2022-11-30T18:47:14.244Z,67.80
2022-11-30T18:49:42.343Z,65.77
2022-11-30T18:52:10.536Z,68.53
2022-11-30T18:54:38.718Z,68.33
2022-11-30T18:57:07.028Z,65.70
2022-11-30T18:59:35.151Z,66.50
2022-11-30T19:02:03.653Z,63.90
2022-11-30T19:04:33.559Z,64.57
2022-11-30T19:07:01.470Z,70.07
2022-11-30T19:09:29.948Z,67.43
2022-11-30T19:11:58.216Z,67.33
2022-11-30T19:14:26.305Z,70.67
2022-11-30T19:16:54.631Z,68.70
2022-11-30T19:19:22.812Z,67.87
2022-11-30T19:21:52.376Z,69.10
2022-11-30T19:24:20.668Z,71.57
2022-11-30T19:26:49.414Z,67.70
2022-11-30T19:29:17.790Z,68.57
2022-11-30T19:31:46.568Z,73.97
2022-11-30T19:34:15.088Z,74.03
2022-11-30T19:36:43.522Z,74.40
2022-11-30T19:39:13.290Z,73.43
2022-11-30T19:41:41.443Z,73.80
2022-11-30T19:44:15.031Z,73.33
2022-11-30T19:46:43.370Z,70.03
2022-11-30T19:49:13.434Z,73.47
2022-11-30T19:51:41.640Z,70.47
2022-11-30T19:54:09.962Z,74.10
2022-11-30T19:56:41.915Z,76.50
2022-11-30T19:59:10.293Z,78.60
2022-11-30T20:01:38.727Z,75.37
2022-11-30T20:04:07.108Z,76.43
2022-11-30T20:06:36.904Z,73.03
2022-11-30T20:09:06.626Z,72.77
2022-11-30T20:11:35.512Z,73.70
2022-11-30T20:14:05.517Z,74.33
2022-11-30T20:16:34.170Z,74.97
2022-11-30T20:19:03.791Z,71.00
2022-11-30T20:21:34.030Z,70.97
2022-11-30T20:24:04.417Z,71.77
2022-11-30T20:26:34.668Z,73.43
2022-11-30T20:29:05.773Z,73.87
2022-11-30T20:31:36.700Z,76.20
2022-11-30T20:34:05.306Z,75.70
2022-11-30T20:36:33.478Z,76.50
2022-11-30T20:39:02.878Z,77.93
2022-11-30T20:41:31.042Z,76.27
2022-11-30T20:43:59.392Z,75.13
2022-11-30T20:46:30.534Z,75.80
2022-11-30T20:48:59.982Z,79.53
2022-11-30T20:51:31.714Z,78.90
2022-11-30T20:54:01.332Z,79.87
2022-11-30T20:56:29.588Z,77.77
2022-11-30T20:59:01.199Z,74.17
2022-11-30T21:01:30.835Z,73.50
2022-11-30T21:04:00.639Z,77.17
2022-11-30T21:06:29.196Z,76.17
2022-11-30T21:08:57.431Z,74.87
2022-11-30T21:11:26.334Z,76.47
2022-11-30T21:13:54.855Z,77.87
2022-11-30T21:16:28.163Z,78.20
2022-11-30T21:18:59.909Z,78.97
2022-11-30T21:21:30.781Z,80.33
2022-11-30T21:24:01.047Z,79.00
2022-11-30T21:26:31.107Z,77.30
2022-11-30T21:29:01.979Z,83.87
2022-11-30T21:31:31.060Z,81.27
2022-11-30T21:34:01.112Z,78.77
2022-11-30T21:36:29.973Z,81.90
2022-11-30T21:39:05.121Z,80.33
2022-11-30T21:41:35.257Z,83.20
2022-11-30T21:44:03.633Z,86.83
2022-11-30T21:46:32.108Z,81.70
2022-11-30T21:49:01.876Z,81.00
2022-11-30T21:51:32.115Z,81.83
2022-11-30T21:54:02.698Z,80.80
2022-11-30T21:56:32.422Z,82.87
2022-11-30T21:59:01.329Z,85.17
2022-11-30T22:01:32.271Z,79.50
2022-11-30T22:04:03.255Z,82.90
2022-11-30T22:06:34.353Z,82.80
2022-11-30T22:09:07.635Z,82.37
2022-11-30T22:11:37.395Z,80.70
2022-11-30T22:14:05.941Z,80.20
2022-11-30T22:16:36.472Z,80.50
2022-11-30T22:19:07.583Z,81.37
2022-11-30T22:21:36.674Z,81.20
2022-11-30T22:24:06.717Z,80.60
2022-11-30T22:26:36.224Z,80.67
2022-11-30T22:29:06.690Z,85.27
2022-11-30T22:31:37.521Z,87.20
2022-11-30T22:34:07.815Z,85.97
2022-11-30T22:36:37.967Z,89.30
2022-11-30T22:39:09.240Z,88.50
2022-11-30T22:41:37.356Z,92.00
2022-11-30T22:44:05.785Z,86.93
2022-11-30T22:46:36.002Z,85.87
2022-11-30T22:49:07.802Z,87.53
2022-11-30T22:51:37.680Z,85.60
2022-11-30T22:54:06.689Z,83.27
2022-11-30T22:56:36.434Z,87.37
2022-11-30T22:59:06.629Z,83.90
2022-11-30T23:01:36.482Z,84.10
2022-11-30T23:04:08.443Z,85.07
2022-11-30T23:06:38.398Z,91.77
2022-11-30T23:09:08.623Z,84.80
2022-11-30T23:11:37.204Z,89.83
2022-11-30T23:14:08.157Z,87.20
2022-11-30T23:16:37.174Z,88.07
2022-11-30T23:19:07.822Z,87.97
2022-11-30T23:21:41.448Z,89.63
2022-11-30T23:24:17.979Z,94.17
2022-11-30T23:26:46.234Z,89.10
2022-11-30T23:29:16.041Z,85.53
2022-11-30T23:31:45.630Z,91.90
2022-11-30T23:34:17.688Z,87.10
2022-11-30T23:36:46.298Z,87.10
2022-11-30T23:39:15.877Z,88.27
2022-11-30T23:41:44.710Z,90.33
2022-11-30T23:44:13.215Z,86.83
2022-11-30T23:46:41.588Z,84.43
2022-11-30T23:49:09.783Z,85.37
2022-11-30T23:51:39.275Z,81.17
2022-11-30T23:54:07.444Z,83.87
2022-11-30T23:56:35.605Z,84.77
2022-11-30T23:59:03.761Z,83.37
